sensor_id;sensor_type;location;lat;lon;timestamp;temperature;humidity
59128;DHT22;44912;52.754;5.994;2024-03-02T00:00:21;8.80;99.90
59128;DHT22;44912;52.754;5.994;2024-03-02T00:02:49;8.80;99.90
59128;DHT22;44912;52.754;5.994;2024-03-02T00:05:19;8.80;99.90
59128;DHT22;44912;52.754;5.994;2024-03-02T00:07:47;8.80;99.90
59128;DHT22;44912;52.754;5.994;2024-03-02T00:10:20;8.80;99.90
59128;DHT22;44912;52.754;5.994;2024-03-02T00:12:51;8.80;99.90
59128;DHT22;44912;52.754;5.994;2024-03-02T00:18:12;8.80;99.90
59128;DHT22;44912;52.754;5.994;2024-03-02T00:20:39;8.80;99.90
59128;DHT22;44912;52.754;5.994;2024-03-02T00:23:06;8.90;99.90
59128;DHT22;44912;52.754;5.994;2024-03-02T00:25:52;8.90;99.90
59128;DHT22;44912;52.754;5.994;2024-03-02T00:28:32;8.80;99.90
59128;DHT22;44912;52.754;5.994;2024-03-02T00:31:12;8.90;99.90
59128;DHT22;44912;52.754;5.994;2024-03-02T00:33:45;8.80;99.90
59128;DHT22;44912;52.754;5.994;2024-03-02T00:36:16;8.80;99.90
59128;DHT22;44912;52.754;5.994;2024-03-02T00:38:50;8.70;99.90
59128;DHT22;44912;52.754;5.994;2024-03-02T00:41:24;8.80;99.90
59128;DHT22;44912;52.754;5.994;2024-03-02T00:44:06;8.80;99.90
59128;DHT22;44912;52.754;5.994;2024-03-02T00:46:37;8.80;99.90
59128;DHT22;44912;52.754;5.994;2024-03-02T00:51:42;8.80;99.90
59128;DHT22;44912;52.754;5.994;2024-03-02T00:54:14;8.80;99.90
59128;DHT22;44912;52.754;5.994;2024-03-02T00:56:41;8.80;99.90
59128;DHT22;44912;52.754;5.994;2024-03-02T00:59:07;8.80;99.90
59128;DHT22;44912;52.754;5.994;2024-03-02T01:01:34;8.80;99.90
59128;DHT22;44912;52.754;5.994;2024-03-02T01:04:00;8.80;99.90
59128;DHT22;44912;52.754;5.994;2024-03-02T01:06:26;8.80;99.90
59128;DHT22;44912;52.754;5.994;2024-03-02T01:08:51;8.80;99.90
59128;DHT22;44912;52.754;5.994;2024-03-02T01:11:17;8.80;99.90
59128;DHT22;44912;52.754;5.994;2024-03-02T01:13:44;8.70;99.90
59128;DHT22;44912;52.754;5.994;2024-03-02T01:16:10;8.70;99.90
59128;DHT22;44912;52.754;5.994;2024-03-02T01:18:35;8.80;99.90
59128;DHT22;44912;52.754;5.994;2024-03-02T01:21:01;8.80;99.90
59128;DHT22;44912;52.754;5.994;2024-03-02T01:23:27;8.80;99.90
59128;DHT22;44912;52.754;5.994;2024-03-02T01:25:53;8.80;99.90
59128;DHT22;44912;52.754;5.994;2024-03-02T01:28:19;8.80;99.90
59128;DHT22;44912;52.754;5.994;2024-03-02T01:30:46;8.80;99.90
59128;DHT22;44912;52.754;5.994;2024-03-02T01:33:11;8.90;99.90
59128;DHT22;44912;52.754;5.994;2024-03-02T01:35:37;8.80;99.90
59128;DHT22;44912;52.754;5.994;2024-03-02T01:38:03;8.90;99.90
59128;DHT22;44912;52.754;5.994;2024-03-02T01:40:32;8.80;99.90
59128;DHT22;44912;52.754;5.994;2024-03-02T01:42:58;8.90;99.90
59128;DHT22;44912;52.754;5.994;2024-03-02T01:45:24;8.90;99.90
59128;DHT22;44912;52.754;5.994;2024-03-02T01:47:50;9.00;99.90
59128;DHT22;44912;52.754;5.994;2024-03-02T01:50:16;8.90;99.90
59128;DHT22;44912;52.754;5.994;2024-03-02T01:52:49;8.90;99.90
59128;DHT22;44912;52.754;5.994;2024-03-02T01:55:15;8.90;99.90
59128;DHT22;44912;52.754;5.994;2024-03-02T01:57:41;9.00;99.90
59128;DHT22;44912;52.754;5.994;2024-03-02T02:00:07;9.00;99.90
59128;DHT22;44912;52.754;5.994;2024-03-02T02:02:33;9.00;99.90
59128;DHT22;44912;52.754;5.994;2024-03-02T02:04:58;9.00;99.90
59128;DHT22;44912;52.754;5.994;2024-03-02T02:07:24;9.10;99.90
59128;DHT22;44912;52.754;5.994;2024-03-02T02:09:49;9.10;99.90
59128;DHT22;44912;52.754;5.994;2024-03-02T02:12:15;9.20;99.90
59128;DHT22;44912;52.754;5.994;2024-03-02T02:14:47;9.20;99.90
59128;DHT22;44912;52.754;5.994;2024-03-02T02:17:14;9.20;99.90
59128;DHT22;44912;52.754;5.994;2024-03-02T02:19:41;9.20;99.90
59128;DHT22;44912;52.754;5.994;2024-03-02T02:22:06;9.40;99.90
59128;DHT22;44912;52.754;5.994;2024-03-02T02:24:32;9.30;99.90
59128;DHT22;44912;52.754;5.994;2024-03-02T02:26:57;9.40;99.90
59128;DHT22;44912;52.754;5.994;2024-03-02T02:29:23;9.40;99.90
59128;DHT22;44912;52.754;5.994;2024-03-02T02:31:49;9.40;99.90
59128;DHT22;44912;52.754;5.994;2024-03-02T02:34:15;9.40;99.90
59128;DHT22;44912;52.754;5.994;2024-03-02T02:36:41;9.40;99.90
59128;DHT22;44912;52.754;5.994;2024-03-02T02:39:10;9.40;99.90
59128;DHT22;44912;52.754;5.994;2024-03-02T02:41:37;9.40;99.90
59128;DHT22;44912;52.754;5.994;2024-03-02T02:44:03;9.30;99.90
59128;DHT22;44912;52.754;5.994;2024-03-02T02:46:29;9.40;99.90
59128;DHT22;44912;52.754;5.994;2024-03-02T02:48:54;9.40;99.90
59128;DHT22;44912;52.754;5.994;2024-03-02T02:51:20;9.30;99.90
59128;DHT22;44912;52.754;5.994;2024-03-02T02:53:45;9.30;99.90
59128;DHT22;44912;52.754;5.994;2024-03-02T02:56:11;9.30;99.90
59128;DHT22;44912;52.754;5.994;2024-03-02T02:58:37;9.30;99.90
59128;DHT22;44912;52.754;5.994;2024-03-02T03:01:03;9.30;99.90
59128;DHT22;44912;52.754;5.994;2024-03-02T03:03:29;9.20;99.90
59128;DHT22;44912;52.754;5.994;2024-03-02T03:05:55;9.30;99.90
59128;DHT22;44912;52.754;5.994;2024-03-02T03:08:21;9.30;99.90
59128;DHT22;44912;52.754;5.994;2024-03-02T03:10:49;9.30;99.90
59128;DHT22;44912;52.754;5.994;2024-03-02T03:13:15;9.20;99.90
59128;DHT22;44912;52.754;5.994;2024-03-02T03:15:40;9.20;99.90
59128;DHT22;44912;52.754;5.994;2024-03-02T03:18:06;9.30;99.90
59128;DHT22;44912;52.754;5.994;2024-03-02T03:20:33;9.20;99.90
59128;DHT22;44912;52.754;5.994;2024-03-02T03:22:59;9.20;99.90
59128;DHT22;44912;52.754;5.994;2024-03-02T03:25:25;9.10;99.90
59128;DHT22;44912;52.754;5.994;2024-03-02T03:27:50;9.10;99.90
59128;DHT22;44912;52.754;5.994;2024-03-02T03:30:18;9.10;99.90
59128;DHT22;44912;52.754;5.994;2024-03-02T03:32:43;9.20;99.90
59128;DHT22;44912;52.754;5.994;2024-03-02T03:35:09;9.10;99.90
59128;DHT22;44912;52.754;5.994;2024-03-02T03:37:35;9.10;99.90
59128;DHT22;44912;52.754;5.994;2024-03-02T03:40:04;9.10;99.90
59128;DHT22;44912;52.754;5.994;2024-03-02T03:42:38;9.10;99.90
59128;DHT22;44912;52.754;5.994;2024-03-02T03:45:04;9.10;99.90
59128;DHT22;44912;52.754;5.994;2024-03-02T03:47:33;9.10;99.90
59128;DHT22;44912;52.754;5.994;2024-03-02T03:49:59;9.10;99.90
59128;DHT22;44912;52.754;5.994;2024-03-02T03:52:25;9.00;99.90
59128;DHT22;44912;52.754;5.994;2024-03-02T03:54:50;9.00;99.90
59128;DHT22;44912;52.754;5.994;2024-03-02T03:57:16;9.00;99.90
59128;DHT22;44912;52.754;5.994;2024-03-02T03:59:42;9.00;99.90
59128;DHT22;44912;52.754;5.994;2024-03-02T04:02:09;9.00;99.90
59128;DHT22;44912;52.754;5.994;2024-03-02T04:04:35;9.00;99.90
59128;DHT22;44912;52.754;5.994;2024-03-02T04:07:01;8.90;99.90
59128;DHT22;44912;52.754;5.994;2024-03-02T04:09:26;8.90;99.90
59128;DHT22;44912;52.754;5.994;2024-03-02T04:11:52;8.90;99.90
59128;DHT22;44912;52.754;5.994;2024-03-02T04:14:18;8.90;99.90
59128;DHT22;44912;52.754;5.994;2024-03-02T04:16:44;8.90;99.90
59128;DHT22;44912;52.754;5.994;2024-03-02T04:19:09;8.90;99.90
59128;DHT22;44912;52.754;5.994;2024-03-02T04:21:35;8.80;99.90
59128;DHT22;44912;52.754;5.994;2024-03-02T04:24:01;8.70;99.90
59128;DHT22;44912;52.754;5.994;2024-03-02T04:26:26;8.70;99.90
59128;DHT22;44912;52.754;5.994;2024-03-02T04:28:52;8.70;99.90
59128;DHT22;44912;52.754;5.994;2024-03-02T04:31:19;8.60;99.90
59128;DHT22;44912;52.754;5.994;2024-03-02T04:33:45;8.60;99.90
59128;DHT22;44912;52.754;5.994;2024-03-02T04:36:11;8.50;99.90
59128;DHT22;44912;52.754;5.994;2024-03-02T04:38:38;8.40;99.90
59128;DHT22;44912;52.754;5.994;2024-03-02T04:41:07;8.40;99.90
59128;DHT22;44912;52.754;5.994;2024-03-02T04:43:33;8.40;99.90
59128;DHT22;44912;52.754;5.994;2024-03-02T04:45:59;8.30;99.90
59128;DHT22;44912;52.754;5.994;2024-03-02T04:48:25;8.30;99.90
59128;DHT22;44912;52.754;5.994;2024-03-02T04:50:51;8.20;99.90
59128;DHT22;44912;52.754;5.994;2024-03-02T04:53:16;8.20;99.90
59128;DHT22;44912;52.754;5.994;2024-03-02T04:55:42;8.20;99.90
59128;DHT22;44912;52.754;5.994;2024-03-02T04:58:07;8.20;99.90
59128;DHT22;44912;52.754;5.994;2024-03-02T05:00:34;8.10;99.90
59128;DHT22;44912;52.754;5.994;2024-03-02T05:02:59;8.10;99.90
59128;DHT22;44912;52.754;5.994;2024-03-02T05:05:25;8.10;99.90
59128;DHT22;44912;52.754;5.994;2024-03-02T05:07:51;8.10;99.90
59128;DHT22;44912;52.754;5.994;2024-03-02T05:10:17;8.10;99.90
59128;DHT22;44912;52.754;5.994;2024-03-02T05:12:43;8.10;99.90
59128;DHT22;44912;52.754;5.994;2024-03-02T05:15:13;8.00;99.90
59128;DHT22;44912;52.754;5.994;2024-03-02T05:17:40;8.10;99.90
59128;DHT22;44912;52.754;5.994;2024-03-02T05:20:06;8.00;99.90
59128;DHT22;44912;52.754;5.994;2024-03-02T05:22:36;8.00;99.90
59128;DHT22;44912;52.754;5.994;2024-03-02T05:25:02;8.00;99.90
59128;DHT22;44912;52.754;5.994;2024-03-02T05:27:29;8.00;99.90
59128;DHT22;44912;52.754;5.994;2024-03-02T05:29:54;7.90;99.90
59128;DHT22;44912;52.754;5.994;2024-03-02T05:32:20;7.90;99.90
59128;DHT22;44912;52.754;5.994;2024-03-02T05:34:46;7.90;99.90
59128;DHT22;44912;52.754;5.994;2024-03-02T05:37:11;7.90;99.90
59128;DHT22;44912;52.754;5.994;2024-03-02T05:39:37;7.80;99.90
59128;DHT22;44912;52.754;5.994;2024-03-02T05:42:03;7.70;99.90
59128;DHT22;44912;52.754;5.994;2024-03-02T05:44:29;7.70;99.90
59128;DHT22;44912;52.754;5.994;2024-03-02T05:46:55;7.70;99.90
59128;DHT22;44912;52.754;5.994;2024-03-02T05:49:21;7.60;99.90
59128;DHT22;44912;52.754;5.994;2024-03-02T05:51:46;7.60;99.90
59128;DHT22;44912;52.754;5.994;2024-03-02T05:54:12;7.60;99.90
59128;DHT22;44912;52.754;5.994;2024-03-02T05:56:38;7.60;99.90
59128;DHT22;44912;52.754;5.994;2024-03-02T05:59:03;7.50;99.90
59128;DHT22;44912;52.754;5.994;2024-03-02T06:01:47;7.50;99.90
59128;DHT22;44912;52.754;5.994;2024-03-02T06:04:13;7.50;99.90
59128;DHT22;44912;52.754;5.994;2024-03-02T06:06:40;7.40;99.90
59128;DHT22;44912;52.754;5.994;2024-03-02T06:09:06;7.40;99.90
59128;DHT22;44912;52.754;5.994;2024-03-02T06:11:41;7.40;99.90
59128;DHT22;44912;52.754;5.994;2024-03-02T06:14:08;7.40;99.90
59128;DHT22;44912;52.754;5.994;2024-03-02T06:16:34;7.30;99.90
59128;DHT22;44912;52.754;5.994;2024-03-02T06:19:00;7.20;99.90
59128;DHT22;44912;52.754;5.994;2024-03-02T06:21:27;7.30;99.90
59128;DHT22;44912;52.754;5.994;2024-03-02T06:23:53;7.30;99.90
59128;DHT22;44912;52.754;5.994;2024-03-02T06:26:19;7.20;99.90
59128;DHT22;44912;52.754;5.994;2024-03-02T06:28:45;7.20;99.90
59128;DHT22;44912;52.754;5.994;2024-03-02T06:31:11;7.10;99.90
59128;DHT22;44912;52.754;5.994;2024-03-02T06:33:36;7.10;99.90
59128;DHT22;44912;52.754;5.994;2024-03-02T06:36:02;7.20;99.90
59128;DHT22;44912;52.754;5.994;2024-03-02T06:38:28;7.20;99.90
59128;DHT22;44912;52.754;5.994;2024-03-02T06:40:54;7.10;99.90
59128;DHT22;44912;52.754;5.994;2024-03-02T06:43:22;7.20;99.90
59128;DHT22;44912;52.754;5.994;2024-03-02T06:45:52;7.10;99.90
59128;DHT22;44912;52.754;5.994;2024-03-02T06:48:18;7.10;99.90
59128;DHT22;44912;52.754;5.994;2024-03-02T06:50:49;7.10;99.90
59128;DHT22;44912;52.754;5.994;2024-03-02T06:53:15;7.10;99.90
59128;DHT22;44912;52.754;5.994;2024-03-02T06:55:46;7.10;99.90
59128;DHT22;44912;52.754;5.994;2024-03-02T06:58:15;7.10;99.90
59128;DHT22;44912;52.754;5.994;2024-03-02T07:00:44;7.20;99.90
59128;DHT22;44912;52.754;5.994;2024-03-02T07:03:09;7.20;99.90
59128;DHT22;44912;52.754;5.994;2024-03-02T07:05:35;7.10;99.90
59128;DHT22;44912;52.754;5.994;2024-03-02T07:08:01;7.10;99.90
59128;DHT22;44912;52.754;5.994;2024-03-02T07:10:28;7.20;99.90
59128;DHT22;44912;52.754;5.994;2024-03-02T07:12:53;7.20;99.90
59128;DHT22;44912;52.754;5.994;2024-03-02T07:15:19;7.20;99.90
59128;DHT22;44912;52.754;5.994;2024-03-02T07:17:53;7.30;99.90
59128;DHT22;44912;52.754;5.994;2024-03-02T07:20:19;7.30;99.90
59128;DHT22;44912;52.754;5.994;2024-03-02T07:22:45;7.40;99.90
59128;DHT22;44912;52.754;5.994;2024-03-02T07:25:11;7.40;99.90
59128;DHT22;44912;52.754;5.994;2024-03-02T07:27:36;7.40;99.90
59128;DHT22;44912;52.754;5.994;2024-03-02T07:30:03;7.40;99.90
59128;DHT22;44912;52.754;5.994;2024-03-02T07:32:29;7.50;99.90
59128;DHT22;44912;52.754;5.994;2024-03-02T07:34:54;7.50;99.90
59128;DHT22;44912;52.754;5.994;2024-03-02T07:37:21;7.40;99.90
59128;DHT22;44912;52.754;5.994;2024-03-02T07:39:47;7.60;99.90
59128;DHT22;44912;52.754;5.994;2024-03-02T07:42:13;7.70;99.90
59128;DHT22;44912;52.754;5.994;2024-03-02T07:44:39;7.70;99.90
59128;DHT22;44912;52.754;5.994;2024-03-02T07:47:04;7.80;99.90
59128;DHT22;44912;52.754;5.994;2024-03-02T07:49:30;7.90;99.90
59128;DHT22;44912;52.754;5.994;2024-03-02T07:51:56;8.00;99.90
59128;DHT22;44912;52.754;5.994;2024-03-02T07:54:21;8.00;99.90
59128;DHT22;44912;52.754;5.994;2024-03-02T07:56:47;8.20;99.90
59128;DHT22;44912;52.754;5.994;2024-03-02T07:59:13;8.20;99.90
59128;DHT22;44912;52.754;5.994;2024-03-02T08:01:38;8.40;99.90
59128;DHT22;44912;52.754;5.994;2024-03-02T08:04:04;8.50;99.90
59128;DHT22;44912;52.754;5.994;2024-03-02T08:06:30;8.60;99.90
59128;DHT22;44912;52.754;5.994;2024-03-02T08:09:00;8.60;99.90
59128;DHT22;44912;52.754;5.994;2024-03-02T08:11:26;8.80;99.90
59128;DHT22;44912;52.754;5.994;2024-03-02T08:13:56;8.90;99.90
59128;DHT22;44912;52.754;5.994;2024-03-02T08:16:25;8.90;99.90
59128;DHT22;44912;52.754;5.994;2024-03-02T08:18:51;9.10;99.90
59128;DHT22;44912;52.754;5.994;2024-03-02T08:21:17;9.10;99.90
59128;DHT22;44912;52.754;5.994;2024-03-02T08:23:43;9.00;99.90
59128;DHT22;44912;52.754;5.994;2024-03-02T08:26:09;9.10;99.90
59128;DHT22;44912;52.754;5.994;2024-03-02T08:28:36;9.20;99.90
59128;DHT22;44912;52.754;5.994;2024-03-02T08:31:08;9.20;99.90
59128;DHT22;44912;52.754;5.994;2024-03-02T08:33:34;9.30;99.90
59128;DHT22;44912;52.754;5.994;2024-03-02T08:36:00;9.40;99.90
59128;DHT22;44912;52.754;5.994;2024-03-02T08:38:26;9.50;99.90
59128;DHT22;44912;52.754;5.994;2024-03-02T08:40:52;9.40;99.90
59128;DHT22;44912;52.754;5.994;2024-03-02T08:43:17;9.50;99.90
59128;DHT22;44912;52.754;5.994;2024-03-02T08:45:43;9.60;99.90
59128;DHT22;44912;52.754;5.994;2024-03-02T08:48:10;9.60;99.90
59128;DHT22;44912;52.754;5.994;2024-03-02T08:50:36;9.60;99.90
59128;DHT22;44912;52.754;5.994;2024-03-02T08:53:05;9.60;99.90
59128;DHT22;44912;52.754;5.994;2024-03-02T08:55:31;9.60;99.90
59128;DHT22;44912;52.754;5.994;2024-03-02T08:57:56;9.60;99.90
59128;DHT22;44912;52.754;5.994;2024-03-02T09:00:23;9.70;99.90
59128;DHT22;44912;52.754;5.994;2024-03-02T09:02:49;9.90;99.90
59128;DHT22;44912;52.754;5.994;2024-03-02T09:05:15;9.90;99.90
59128;DHT22;44912;52.754;5.994;2024-03-02T09:07:40;10.00;99.90
59128;DHT22;44912;52.754;5.994;2024-03-02T09:10:07;10.00;99.90
59128;DHT22;44912;52.754;5.994;2024-03-02T09:12:33;10.00;99.90
59128;DHT22;44912;52.754;5.994;2024-03-02T09:15:00;10.00;99.90
59128;DHT22;44912;52.754;5.994;2024-03-02T09:17:26;9.90;99.90
59128;DHT22;44912;52.754;5.994;2024-03-02T09:19:52;10.00;99.90
59128;DHT22;44912;52.754;5.994;2024-03-02T09:22:21;10.10;99.90
59128;DHT22;44912;52.754;5.994;2024-03-02T09:24:47;10.10;99.90
59128;DHT22;44912;52.754;5.994;2024-03-02T09:27:13;10.30;99.90
59128;DHT22;44912;52.754;5.994;2024-03-02T09:29:38;10.40;99.90
59128;DHT22;44912;52.754;5.994;2024-03-02T09:32:05;10.60;99.90
59128;DHT22;44912;52.754;5.994;2024-03-02T09:34:31;10.70;99.90
59128;DHT22;44912;52.754;5.994;2024-03-02T09:36:57;10.80;99.90
59128;DHT22;44912;52.754;5.994;2024-03-02T09:39:23;11.00;99.90
59128;DHT22;44912;52.754;5.994;2024-03-02T09:41:50;11.10;99.90
59128;DHT22;44912;52.754;5.994;2024-03-02T09:44:16;11.10;99.90
59128;DHT22;44912;52.754;5.994;2024-03-02T09:46:42;11.10;99.90
59128;DHT22;44912;52.754;5.994;2024-03-02T09:49:12;11.20;99.90
59128;DHT22;44912;52.754;5.994;2024-03-02T09:51:38;11.30;99.90
59128;DHT22;44912;52.754;5.994;2024-03-02T09:54:05;11.50;99.90
59128;DHT22;44912;52.754;5.994;2024-03-02T09:56:32;11.60;99.90
59128;DHT22;44912;52.754;5.994;2024-03-02T09:58:58;11.70;99.90
59128;DHT22;44912;52.754;5.994;2024-03-02T10:01:24;11.70;99.90
59128;DHT22;44912;52.754;5.994;2024-03-02T10:03:50;11.80;99.90
59128;DHT22;44912;52.754;5.994;2024-03-02T10:06:24;11.80;99.90
59128;DHT22;44912;52.754;5.994;2024-03-02T10:08:50;11.80;99.90
59128;DHT22;44912;52.754;5.994;2024-03-02T10:11:29;11.80;99.90
59128;DHT22;44912;52.754;5.994;2024-03-02T10:16:41;11.90;99.90
59128;DHT22;44912;52.754;5.994;2024-03-02T10:19:23;12.00;99.90
59128;DHT22;44912;52.754;5.994;2024-03-02T10:21:50;12.10;99.90
59128;DHT22;44912;52.754;5.994;2024-03-02T10:24:20;12.30;99.90
59128;DHT22;44912;52.754;5.994;2024-03-02T10:26:46;12.50;99.90
59128;DHT22;44912;52.754;5.994;2024-03-02T10:29:12;12.40;99.90
59128;DHT22;44912;52.754;5.994;2024-03-02T10:31:38;12.50;99.90
59128;DHT22;44912;52.754;5.994;2024-03-02T10:34:05;12.50;99.90
59128;DHT22;44912;52.754;5.994;2024-03-02T10:36:36;12.50;99.90
59128;DHT22;44912;52.754;5.994;2024-03-02T10:39:06;12.70;99.90
59128;DHT22;44912;52.754;5.994;2024-03-02T10:41:36;12.70;99.90
59128;DHT22;44912;52.754;5.994;2024-03-02T10:44:07;12.80;99.90
59128;DHT22;44912;52.754;5.994;2024-03-02T10:46:36;12.90;99.90
59128;DHT22;44912;52.754;5.994;2024-03-02T10:49:03;12.80;99.90
59128;DHT22;44912;52.754;5.994;2024-03-02T10:51:33;12.80;99.90
59128;DHT22;44912;52.754;5.994;2024-03-02T10:54:02;12.90;99.90
59128;DHT22;44912;52.754;5.994;2024-03-02T10:56:33;13.00;99.90
59128;DHT22;44912;52.754;5.994;2024-03-02T11:01:32;13.00;99.90
59128;DHT22;44912;52.754;5.994;2024-03-02T11:03:58;13.00;99.90
59128;DHT22;44912;52.754;5.994;2024-03-02T11:06:26;13.10;99.90
59128;DHT22;44912;52.754;5.994;2024-03-02T11:08:54;13.20;99.90
59128;DHT22;44912;52.754;5.994;2024-03-02T11:11:29;13.30;99.90
59128;DHT22;44912;52.754;5.994;2024-03-02T11:13:57;13.30;99.90
59128;DHT22;44912;52.754;5.994;2024-03-02T11:16:37;13.30;99.90
59128;DHT22;44912;52.754;5.994;2024-03-02T11:19:11;13.40;99.90
59128;DHT22;44912;52.754;5.994;2024-03-02T11:21:38;13.40;99.90
59128;DHT22;44912;52.754;5.994;2024-03-02T11:26:52;13.60;99.90
59128;DHT22;44912;52.754;5.994;2024-03-02T11:29:44;13.70;99.90
59128;DHT22;44912;52.754;5.994;2024-03-02T11:32:21;13.90;99.90
59128;DHT22;44912;52.754;5.994;2024-03-02T11:34:50;14.00;99.90
59128;DHT22;44912;52.754;5.994;2024-03-02T11:37:17;14.10;99.90
59128;DHT22;44912;52.754;5.994;2024-03-02T11:39:47;14.10;99.90
59128;DHT22;44912;52.754;5.994;2024-03-02T11:42:15;14.00;99.90
59128;DHT22;44912;52.754;5.994;2024-03-02T11:44:48;14.00;99.90
59128;DHT22;44912;52.754;5.994;2024-03-02T11:47:17;14.00;99.90
59128;DHT22;44912;52.754;5.994;2024-03-02T11:49:50;14.00;99.90
59128;DHT22;44912;52.754;5.994;2024-03-02T11:52:20;13.90;99.90
59128;DHT22;44912;52.754;5.994;2024-03-02T11:54:48;13.90;99.90
59128;DHT22;44912;52.754;5.994;2024-03-02T11:57:22;13.90;99.90
59128;DHT22;44912;52.754;5.994;2024-03-02T11:59:48;13.90;99.90
59128;DHT22;44912;52.754;5.994;2024-03-02T12:02:21;14.00;99.90
59128;DHT22;44912;52.754;5.994;2024-03-02T12:04:48;14.00;99.90
59128;DHT22;44912;52.754;5.994;2024-03-02T12:07:19;14.00;99.90
59128;DHT22;44912;52.754;5.994;2024-03-02T12:09:46;13.90;99.90
59128;DHT22;44912;52.754;5.994;2024-03-02T12:12:12;13.90;99.90
59128;DHT22;44912;52.754;5.994;2024-03-02T12:14:50;13.90;99.90
59128;DHT22;44912;52.754;5.994;2024-03-02T12:17:16;13.90;99.90
59128;DHT22;44912;52.754;5.994;2024-03-02T12:19:41;13.90;99.90
59128;DHT22;44912;52.754;5.994;2024-03-02T12:22:07;13.90;99.90
59128;DHT22;44912;52.754;5.994;2024-03-02T12:24:33;14.00;99.90
59128;DHT22;44912;52.754;5.994;2024-03-02T12:26:58;14.00;99.90
59128;DHT22;44912;52.754;5.994;2024-03-02T12:29:25;14.10;99.90
59128;DHT22;44912;52.754;5.994;2024-03-02T12:31:51;14.10;99.90
59128;DHT22;44912;52.754;5.994;2024-03-02T12:34:21;14.30;99.90
59128;DHT22;44912;52.754;5.994;2024-03-02T12:36:47;14.30;99.90
59128;DHT22;44912;52.754;5.994;2024-03-02T12:39:16;14.50;99.90
59128;DHT22;44912;52.754;5.994;2024-03-02T12:41:41;14.60;99.90
59128;DHT22;44912;52.754;5.994;2024-03-02T12:44:08;14.70;99.90
59128;DHT22;44912;52.754;5.994;2024-03-02T12:46:34;14.80;99.90
59128;DHT22;44912;52.754;5.994;2024-03-02T12:49:09;14.70;99.90
59128;DHT22;44912;52.754;5.994;2024-03-02T12:51:36;14.70;99.90
59128;DHT22;44912;52.754;5.994;2024-03-02T12:54:02;14.60;99.90
59128;DHT22;44912;52.754;5.994;2024-03-02T12:56:29;14.60;99.90
59128;DHT22;44912;52.754;5.994;2024-03-02T12:58:55;14.60;99.90
59128;DHT22;44912;52.754;5.994;2024-03-02T13:01:21;14.60;99.90
59128;DHT22;44912;52.754;5.994;2024-03-02T13:03:50;14.60;99.90
59128;DHT22;44912;52.754;5.994;2024-03-02T13:06:17;14.50;99.90
59128;DHT22;44912;52.754;5.994;2024-03-02T13:08:44;14.60;99.90
59128;DHT22;44912;52.754;5.994;2024-03-02T13:11:10;14.60;99.90
59128;DHT22;44912;52.754;5.994;2024-03-02T13:13:35;14.60;99.90
59128;DHT22;44912;52.754;5.994;2024-03-02T13:16:01;14.60;99.90
59128;DHT22;44912;52.754;5.994;2024-03-02T13:18:28;14.60;99.90
59128;DHT22;44912;52.754;5.994;2024-03-02T13:20:54;14.60;99.90
59128;DHT22;44912;52.754;5.994;2024-03-02T13:23:21;14.50;99.90
59128;DHT22;44912;52.754;5.994;2024-03-02T13:25:47;14.50;99.90
59128;DHT22;44912;52.754;5.994;2024-03-02T13:28:13;14.40;99.90
59128;DHT22;44912;52.754;5.994;2024-03-02T13:30:39;14.40;99.90
59128;DHT22;44912;52.754;5.994;2024-03-02T13:33:04;14.40;99.90
59128;DHT22;44912;52.754;5.994;2024-03-02T13:35:30;14.50;99.90
59128;DHT22;44912;52.754;5.994;2024-03-02T13:37:56;14.50;99.90
59128;DHT22;44912;52.754;5.994;2024-03-02T13:40:21;14.50;99.90
59128;DHT22;44912;52.754;5.994;2024-03-02T13:42:49;14.50;99.90
59128;DHT22;44912;52.754;5.994;2024-03-02T13:45:17;14.50;99.90
59128;DHT22;44912;52.754;5.994;2024-03-02T13:47:44;14.50;99.90
59128;DHT22;44912;52.754;5.994;2024-03-02T13:50:09;14.40;99.90
59128;DHT22;44912;52.754;5.994;2024-03-02T13:52:35;14.40;99.90
59128;DHT22;44912;52.754;5.994;2024-03-02T13:55:01;14.40;99.90
59128;DHT22;44912;52.754;5.994;2024-03-02T13:57:26;14.30;99.90
59128;DHT22;44912;52.754;5.994;2024-03-02T13:59:53;14.20;99.90
59128;DHT22;44912;52.754;5.994;2024-03-02T14:02:20;14.20;99.90
59128;DHT22;44912;52.754;5.994;2024-03-02T14:04:45;14.30;99.90
59128;DHT22;44912;52.754;5.994;2024-03-02T14:07:13;14.40;99.90
59128;DHT22;44912;52.754;5.994;2024-03-02T14:09:39;14.50;99.90
59128;DHT22;44912;52.754;5.994;2024-03-02T14:12:05;14.50;99.90
59128;DHT22;44912;52.754;5.994;2024-03-02T14:14:31;14.40;99.90
59128;DHT22;44912;52.754;5.994;2024-03-02T14:16:57;14.40;99.90
59128;DHT22;44912;52.754;5.994;2024-03-02T14:19:26;14.40;99.90
59128;DHT22;44912;52.754;5.994;2024-03-02T14:21:52;14.50;99.90
59128;DHT22;44912;52.754;5.994;2024-03-02T14:24:17;14.50;99.90
59128;DHT22;44912;52.754;5.994;2024-03-02T14:26:43;14.50;99.90
59128;DHT22;44912;52.754;5.994;2024-03-02T14:29:09;14.60;99.90
59128;DHT22;44912;52.754;5.994;2024-03-02T14:31:35;14.60;99.90
59128;DHT22;44912;52.754;5.994;2024-03-02T14:34:00;14.60;99.90
59128;DHT22;44912;52.754;5.994;2024-03-02T14:36:27;14.50;99.90
59128;DHT22;44912;52.754;5.994;2024-03-02T14:38:53;14.50;99.90
59128;DHT22;44912;52.754;5.994;2024-03-02T14:41:19;14.50;99.90
59128;DHT22;44912;52.754;5.994;2024-03-02T14:43:45;14.50;99.90
59128;DHT22;44912;52.754;5.994;2024-03-02T14:46:11;14.50;99.90
59128;DHT22;44912;52.754;5.994;2024-03-02T14:48:37;14.40;99.90
59128;DHT22;44912;52.754;5.994;2024-03-02T14:51:04;14.40;99.90
59128;DHT22;44912;52.754;5.994;2024-03-02T14:53:30;14.40;99.90
59128;DHT22;44912;52.754;5.994;2024-03-02T14:55:55;14.40;99.90
59128;DHT22;44912;52.754;5.994;2024-03-02T14:58:21;14.40;99.90
59128;DHT22;44912;52.754;5.994;2024-03-02T15:00:47;14.30;99.90
59128;DHT22;44912;52.754;5.994;2024-03-02T15:03:12;14.30;99.90
59128;DHT22;44912;52.754;5.994;2024-03-02T15:05:38;14.20;99.90
59128;DHT22;44912;52.754;5.994;2024-03-02T15:08:05;14.10;99.90
59128;DHT22;44912;52.754;5.994;2024-03-02T15:10:31;14.10;99.90
59128;DHT22;44912;52.754;5.994;2024-03-02T15:13:00;14.10;99.90
59128;DHT22;44912;52.754;5.994;2024-03-02T15:15:26;14.10;99.90
59128;DHT22;44912;52.754;5.994;2024-03-02T15:17:52;14.10;99.90
59128;DHT22;44912;52.754;5.994;2024-03-02T15:20:18;14.20;99.90
59128;DHT22;44912;52.754;5.994;2024-03-02T15:22:46;14.20;99.90
59128;DHT22;44912;52.754;5.994;2024-03-02T15:25:12;14.20;99.90
59128;DHT22;44912;52.754;5.994;2024-03-02T15:27:38;14.20;99.90
59128;DHT22;44912;52.754;5.994;2024-03-02T15:30:05;14.20;99.90
59128;DHT22;44912;52.754;5.994;2024-03-02T15:32:32;14.20;99.90
59128;DHT22;44912;52.754;5.994;2024-03-02T15:34:59;14.10;99.90
59128;DHT22;44912;52.754;5.994;2024-03-02T15:37:25;14.20;99.90
59128;DHT22;44912;52.754;5.994;2024-03-02T15:39:50;14.20;99.90
59128;DHT22;44912;52.754;5.994;2024-03-02T15:42:16;14.20;99.90
59128;DHT22;44912;52.754;5.994;2024-03-02T15:44:43;14.20;99.90
59128;DHT22;44912;52.754;5.994;2024-03-02T15:47:09;14.20;99.90
59128;DHT22;44912;52.754;5.994;2024-03-02T15:49:34;14.20;99.90
59128;DHT22;44912;52.754;5.994;2024-03-02T15:52:00;14.20;99.90